sensor_id;sensor_type;location;lat;lon;timestamp;temperature;humidity
66594;DHT22;53450;42.584;23.366;2023-03-14T00:00:59;-0.07;67.12
66594;DHT22;53450;42.584;23.366;2023-03-14T00:03:25;-0.09;67.28
66594;DHT22;53450;42.584;23.366;2023-03-14T00:05:50;-0.10;66.89
66594;DHT22;53450;42.584;23.366;2023-03-14T00:08:16;-0.14;67.41
66594;DHT22;53450;42.584;23.366;2023-03-14T00:10:41;-0.14;67.55
66594;DHT22;53450;42.584;23.366;2023-03-14T00:13:07;-0.12;67.38
66594;DHT22;53450;42.584;23.366;2023-03-14T00:15:33;-0.13;67.40
66594;DHT22;53450;42.584;23.366;2023-03-14T00:17:59;-0.19;67.45
66594;DHT22;53450;42.584;23.366;2023-03-14T00:20:25;-0.21;67.79
66594;DHT22;53450;42.584;23.366;2023-03-14T00:22:51;-0.26;66.41
66594;DHT22;53450;42.584;23.366;2023-03-14T00:25:17;-0.20;66.85
66594;DHT22;53450;42.584;23.366;2023-03-14T00:27:43;-0.31;67.55
66594;DHT22;53450;42.584;23.366;2023-03-14T00:30:09;-0.40;66.77
66594;DHT22;53450;42.584;23.366;2023-03-14T00:32:35;-0.37;66.84
66594;DHT22;53450;42.584;23.366;2023-03-14T00:35:01;-0.49;67.78
66594;DHT22;53450;42.584;23.366;2023-03-14T00:37:29;-0.54;68.67
66594;DHT22;53450;42.584;23.366;2023-03-14T00:39:55;-0.54;68.67
66594;DHT22;53450;42.584;23.366;2023-03-14T00:42:21;-0.53;68.55
66594;DHT22;53450;42.584;23.366;2023-03-14T00:44:49;-0.50;68.07
66594;DHT22;53450;42.584;23.366;2023-03-14T00:47:14;-0.50;68.22
66594;DHT22;53450;42.584;23.366;2023-03-14T00:49:41;-0.49;69.18
66594;DHT22;53450;42.584;23.366;2023-03-14T00:52:09;-0.49;68.64
66594;DHT22;53450;42.584;23.366;2023-03-14T00:54:35;-0.47;68.53
66594;DHT22;53450;42.584;23.366;2023-03-14T00:57:00;-0.41;68.69
66594;DHT22;53450;42.584;23.366;2023-03-14T00:59:26;-0.44;68.74
66594;DHT22;53450;42.584;23.366;2023-03-14T01:01:51;-0.57;68.92
66594;DHT22;53450;42.584;23.366;2023-03-14T01:04:18;-0.60;68.23
66594;DHT22;53450;42.584;23.366;2023-03-14T01:06:43;-0.58;68.35
66594;DHT22;53450;42.584;23.366;2023-03-14T01:09:34;-0.56;68.68
66594;DHT22;53450;42.584;23.366;2023-03-14T01:11:59;-0.51;68.20
66594;DHT22;53450;42.584;23.366;2023-03-14T01:14:25;-0.45;68.75
66594;DHT22;53450;42.584;23.366;2023-03-14T01:16:50;-0.45;68.87
66594;DHT22;53450;42.584;23.366;2023-03-14T01:19:16;-0.51;68.63
66594;DHT22;53450;42.584;23.366;2023-03-14T01:21:41;-0.54;69.27
66594;DHT22;53450;42.584;23.366;2023-03-14T01:24:07;-0.61;69.71
66594;DHT22;53450;42.584;23.366;2023-03-14T01:26:34;-0.71;69.95
66594;DHT22;53450;42.584;23.366;2023-03-14T01:29:01;-0.71;69.57
66594;DHT22;53450;42.584;23.366;2023-03-14T01:31:28;-0.72;69.16
66594;DHT22;53450;42.584;23.366;2023-03-14T01:33:54;-0.79;69.87
66594;DHT22;53450;42.584;23.366;2023-03-14T01:36:20;-0.82;69.49
66594;DHT22;53450;42.584;23.366;2023-03-14T01:38:46;-0.81;70.06
66594;DHT22;53450;42.584;23.366;2023-03-14T01:41:20;-0.84;69.72
66594;DHT22;53450;42.584;23.366;2023-03-14T01:43:47;-0.89;70.36
66594;DHT22;53450;42.584;23.366;2023-03-14T01:49:07;-0.95;69.84
66594;DHT22;53450;42.584;23.366;2023-03-14T01:51:45;-0.98;70.55
66594;DHT22;53450;42.584;23.366;2023-03-14T01:54:27;-1.05;70.33
66594;DHT22;53450;42.584;23.366;2023-03-14T01:57:08;-1.03;70.24
66594;DHT22;53450;42.584;23.366;2023-03-14T01:59:35;-1.01;70.71
66594;DHT22;53450;42.584;23.366;2023-03-14T02:02:02;-1.06;70.03
66594;DHT22;53450;42.584;23.366;2023-03-14T02:04:33;-1.06;68.74
66594;DHT22;53450;42.584;23.366;2023-03-14T02:07:06;-1.01;69.83
66594;DHT22;53450;42.584;23.366;2023-03-14T02:09:38;-0.99;69.92
66594;DHT22;53450;42.584;23.366;2023-03-14T02:12:12;-1.01;70.24
66594;DHT22;53450;42.584;23.366;2023-03-14T02:14:59;-0.99;70.19
66594;DHT22;53450;42.584;23.366;2023-03-14T02:17:47;-1.03;70.59
66594;DHT22;53450;42.584;23.366;2023-03-14T02:23:08;-0.99;71.03
66594;DHT22;53450;42.584;23.366;2023-03-14T02:25:51;-0.98;70.19
66594;DHT22;53450;42.584;23.366;2023-03-14T02:28:20;-1.01;70.61
66594;DHT22;53450;42.584;23.366;2023-03-14T02:30:51;-1.03;70.60
66594;DHT22;53450;42.584;23.366;2023-03-14T02:33:18;-1.13;70.95
66594;DHT22;53450;42.584;23.366;2023-03-14T02:35:49;-1.12;70.62
66594;DHT22;53450;42.584;23.366;2023-03-14T02:38:24;-1.05;70.16
66594;DHT22;53450;42.584;23.366;2023-03-14T02:40:52;-1.06;70.15
66594;DHT22;53450;42.584;23.366;2023-03-14T02:43:18;-1.09;69.92
66594;DHT22;53450;42.584;23.366;2023-03-14T02:45:50;-1.12;70.15
66594;DHT22;53450;42.584;23.366;2023-03-14T02:48:28;-1.19;70.51
66594;DHT22;53450;42.584;23.366;2023-03-14T02:50:57;-1.20;70.73
66594;DHT22;53450;42.584;23.366;2023-03-14T02:53:33;-1.22;71.08
66594;DHT22;53450;42.584;23.366;2023-03-14T02:56:04;-1.15;70.44
66594;DHT22;53450;42.584;23.366;2023-03-14T02:58:32;-1.08;70.46
66594;DHT22;53450;42.584;23.366;2023-03-14T03:01:05;-1.06;71.05
66594;DHT22;53450;42.584;23.366;2023-03-14T03:03:31;-1.13;71.32
66594;DHT22;53450;42.584;23.366;2023-03-14T03:05:57;-1.23;71.92
66594;DHT22;53450;42.584;23.366;2023-03-14T03:08:24;-1.28;71.95
66594;DHT22;53450;42.584;23.366;2023-03-14T03:11:16;-1.32;72.18
66594;DHT22;53450;42.584;23.366;2023-03-14T03:13:42;-1.32;72.27
66594;DHT22;53450;42.584;23.366;2023-03-14T03:16:08;-1.33;72.41
66594;DHT22;53450;42.584;23.366;2023-03-14T03:18:34;-1.38;72.81
66594;DHT22;53450;42.584;23.366;2023-03-14T03:21:01;-1.49;72.45
66594;DHT22;53450;42.584;23.366;2023-03-14T03:23:27;-1.47;72.06
66594;DHT22;53450;42.584;23.366;2023-03-14T03:25:53;-1.57;71.93
66594;DHT22;53450;42.584;23.366;2023-03-14T03:28:19;-1.47;72.20
66594;DHT22;53450;42.584;23.366;2023-03-14T03:30:45;-1.50;72.52
66594;DHT22;53450;42.584;23.366;2023-03-14T03:33:11;-1.57;72.34
66594;DHT22;53450;42.584;23.366;2023-03-14T03:35:48;-1.57;72.01
66594;DHT22;53450;42.584;23.366;2023-03-14T03:38:18;-1.57;72.38
66594;DHT22;53450;42.584;23.366;2023-03-14T03:40:48;-1.63;72.50
66594;DHT22;53450;42.584;23.366;2023-03-14T03:43:14;-1.61;72.22
66594;DHT22;53450;42.584;23.366;2023-03-14T03:45:42;-1.56;72.51
66594;DHT22;53450;42.584;23.366;2023-03-14T03:48:08;-1.56;72.38
66594;DHT22;53450;42.584;23.366;2023-03-14T03:50:33;-1.54;72.33
66594;DHT22;53450;42.584;23.366;2023-03-14T03:52:59;-1.49;72.53
66594;DHT22;53450;42.584;23.366;2023-03-14T03:55:25;-1.53;72.46
66594;DHT22;53450;42.584;23.366;2023-03-14T03:57:54;-1.47;72.15
66594;DHT22;53450;42.584;23.366;2023-03-14T04:00:20;-1.47;72.27
66594;DHT22;53450;42.584;23.366;2023-03-14T04:02:46;-1.50;71.86
66594;DHT22;53450;42.584;23.366;2023-03-14T04:05:15;-1.53;72.58
66594;DHT22;53450;42.584;23.366;2023-03-14T04:07:47;-1.57;72.43
66594;DHT22;53450;42.584;23.366;2023-03-14T04:10:17;-1.57;72.94
66594;DHT22;53450;42.584;23.366;2023-03-14T04:12:56;-1.61;73.14
66594;DHT22;53450;42.584;23.366;2023-03-14T04:15:25;-1.68;72.80
66594;DHT22;53450;42.584;23.366;2023-03-14T04:17:58;-1.64;72.52
66594;DHT22;53450;42.584;23.366;2023-03-14T04:20:29;-1.64;72.78
66594;DHT22;53450;42.584;23.366;2023-03-14T04:22:54;-1.59;72.13
66594;DHT22;53450;42.584;23.366;2023-03-14T04:25:20;-1.57;71.83
66594;DHT22;53450;42.584;23.366;2023-03-14T04:27:55;-1.60;71.85
66594;DHT22;53450;42.584;23.366;2023-03-14T04:30:24;-1.64;72.64
66594;DHT22;53450;42.584;23.366;2023-03-14T04:32:53;-1.68;73.01
66594;DHT22;53450;42.584;23.366;2023-03-14T04:35:20;-1.61;73.52
66594;DHT22;53450;42.584;23.366;2023-03-14T04:37:46;-1.64;73.12
66594;DHT22;53450;42.584;23.366;2023-03-14T04:40:15;-1.56;72.37
66594;DHT22;53450;42.584;23.366;2023-03-14T04:45:49;-1.60;72.67
66594;DHT22;53450;42.584;23.366;2023-03-14T04:48:15;-1.59;72.65
66594;DHT22;53450;42.584;23.366;2023-03-14T04:50:41;-1.60;72.21
66594;DHT22;53450;42.584;23.366;2023-03-14T04:53:08;-1.56;72.69
66594;DHT22;53450;42.584;23.366;2023-03-14T04:55:34;-1.53;73.30
66594;DHT22;53450;42.584;23.366;2023-03-14T04:58:07;-1.47;73.20
66594;DHT22;53450;42.584;23.366;2023-03-14T05:00:32;-1.40;73.04
66594;DHT22;53450;42.584;23.366;2023-03-14T05:03:30;-1.33;72.50
66594;DHT22;53450;42.584;23.366;2023-03-14T05:06:04;-1.28;72.77
66594;DHT22;53450;42.584;23.366;2023-03-14T05:08:32;-1.22;72.14
66594;DHT22;53450;42.584;23.366;2023-03-14T05:11:30;-1.17;72.32
66594;DHT22;53450;42.584;23.366;2023-03-14T05:14:06;-1.10;72.45
66594;DHT22;53450;42.584;23.366;2023-03-14T05:16:56;-0.93;71.49
66594;DHT22;53450;42.584;23.366;2023-03-14T05:19:41;-0.85;72.17
66594;DHT22;53450;42.584;23.366;2023-03-14T05:22:29;-0.87;71.44
66594;DHT22;53450;42.584;23.366;2023-03-14T05:25:24;-0.79;70.82
66594;DHT22;53450;42.584;23.366;2023-03-14T05:28:12;-0.54;70.78
66594;DHT22;53450;42.584;23.366;2023-03-14T05:30:43;-0.37;70.77
66594;DHT22;53450;42.584;23.366;2023-03-14T05:33:41;-0.33;71.52
66594;DHT22;53450;42.584;23.366;2023-03-14T05:36:25;-0.24;70.77
66594;DHT22;53450;42.584;23.366;2023-03-14T05:39:03;-0.10;70.10
66594;DHT22;53450;42.584;23.366;2023-03-14T05:41:46;0.12;69.37
66594;DHT22;53450;42.584;23.366;2023-03-14T05:44:36;0.18;69.40
66594;DHT22;53450;42.584;23.366;2023-03-14T05:47:12;0.35;69.29
66594;DHT22;53450;42.584;23.366;2023-03-14T05:49:56;0.65;68.55
66594;DHT22;53450;42.584;23.366;2023-03-14T05:52:41;0.90;68.33
66594;DHT22;53450;42.584;23.366;2023-03-14T05:55:29;1.16;67.45
66594;DHT22;53450;42.584;23.366;2023-03-14T05:58:30;1.42;65.62
66594;DHT22;53450;42.584;23.366;2023-03-14T06:01:08;1.51;65.35
66594;DHT22;53450;42.584;23.366;2023-03-14T06:03:53;1.66;64.57
66594;DHT22;53450;42.584;23.366;2023-03-14T06:06:19;1.86;63.87
66594;DHT22;53450;42.584;23.366;2023-03-14T06:08:45;1.96;63.30
66594;DHT22;53450;42.584;23.366;2023-03-14T06:11:11;1.92;62.32
66594;DHT22;53450;42.584;23.366;2023-03-14T06:13:36;1.93;62.99
66594;DHT22;53450;42.584;23.366;2023-03-14T06:16:02;2.00;61.66
66594;DHT22;53450;42.584;23.366;2023-03-14T06:18:28;2.07;60.56
66594;DHT22;53450;42.584;23.366;2023-03-14T06:20:56;2.06;60.75
66594;DHT22;53450;42.584;23.366;2023-03-14T06:23:25;2.14;61.59
66594;DHT22;53450;42.584;23.366;2023-03-14T06:25:51;2.31;61.42
66594;DHT22;53450;42.584;23.366;2023-03-14T06:28:17;2.34;61.51
66594;DHT22;53450;42.584;23.366;2023-03-14T06:30:43;2.45;61.68
66594;DHT22;53450;42.584;23.366;2023-03-14T06:33:11;2.54;61.43
66594;DHT22;53450;42.584;23.366;2023-03-14T06:35:37;2.64;61.45
66594;DHT22;53450;42.584;23.366;2023-03-14T06:38:03;2.65;60.77
66594;DHT22;53450;42.584;23.366;2023-03-14T06:40:29;2.68;61.01
66594;DHT22;53450;42.584;23.366;2023-03-14T06:43:05;2.65;61.96
66594;DHT22;53450;42.584;23.366;2023-03-14T06:45:32;2.84;61.10
66594;DHT22;53450;42.584;23.366;2023-03-14T06:48:01;2.96;61.43
66594;DHT22;53450;42.584;23.366;2023-03-14T06:50:37;3.15;60.90
66594;DHT22;53450;42.584;23.366;2023-03-14T06:53:04;3.12;60.43
66594;DHT22;53450;42.584;23.366;2023-03-14T06:55:32;3.24;60.33
66594;DHT22;53450;42.584;23.366;2023-03-14T06:57:57;3.37;59.87
66594;DHT22;53450;42.584;23.366;2023-03-14T07:07:16;3.71;58.70
66594;DHT22;53450;42.584;23.366;2023-03-14T07:09:42;3.77;58.55
66594;DHT22;53450;42.584;23.366;2023-03-14T07:12:15;3.84;58.61
66594;DHT22;53450;42.584;23.366;2023-03-14T07:14:44;3.94;58.17
66594;DHT22;53450;42.584;23.366;2023-03-14T07:17:12;4.05;57.78
66594;DHT22;53450;42.584;23.366;2023-03-14T07:19:38;4.09;56.19
66594;DHT22;53450;42.584;23.366;2023-03-14T07:22:04;4.12;55.69
66594;DHT22;53450;42.584;23.366;2023-03-14T07:24:30;4.22;55.00
66594;DHT22;53450;42.584;23.366;2023-03-14T07:26:56;4.33;55.21
66594;DHT22;53450;42.584;23.366;2023-03-14T07:29:22;4.36;53.82
66594;DHT22;53450;42.584;23.366;2023-03-14T07:31:48;4.49;54.06
66594;DHT22;53450;42.584;23.366;2023-03-14T07:34:17;4.49;53.54
66594;DHT22;53450;42.584;23.366;2023-03-14T07:36:45;4.74;53.14
66594;DHT22;53450;42.584;23.366;2023-03-14T07:39:11;5.02;55.48
66594;DHT22;53450;42.584;23.366;2023-03-14T07:41:37;5.02;56.01
66594;DHT22;53450;42.584;23.366;2023-03-14T07:44:39;5.09;55.95
66594;DHT22;53450;42.584;23.366;2023-03-14T07:47:05;5.07;55.42
66594;DHT22;53450;42.584;23.366;2023-03-14T07:49:55;5.15;50.95
66594;DHT22;53450;42.584;23.366;2023-03-14T07:52:22;5.31;51.72
66594;DHT22;53450;42.584;23.366;2023-03-14T07:54:48;5.36;50.92
66594;DHT22;53450;42.584;23.366;2023-03-14T07:57:15;5.50;51.93
66594;DHT22;53450;42.584;23.366;2023-03-14T07:59:42;5.59;52.35
66594;DHT22;53450;42.584;23.366;2023-03-14T08:02:10;5.59;51.52
66594;DHT22;53450;42.584;23.366;2023-03-14T08:04:38;5.67;52.43
66594;DHT22;53450;42.584;23.366;2023-03-14T08:07:04;5.66;52.44
66594;DHT22;53450;42.584;23.366;2023-03-14T08:09:29;5.69;52.66
66594;DHT22;53450;42.584;23.366;2023-03-14T08:11:55;5.83;53.99
66594;DHT22;53450;42.584;23.366;2023-03-14T08:14:21;5.93;53.07
66594;DHT22;53450;42.584;23.366;2023-03-14T08:16:52;5.95;52.20
66594;DHT22;53450;42.584;23.366;2023-03-14T08:19:20;5.98;52.59
66594;DHT22;53450;42.584;23.366;2023-03-14T08:21:46;5.98;52.03
66594;DHT22;53450;42.584;23.366;2023-03-14T08:24:15;6.10;51.34
66594;DHT22;53450;42.584;23.366;2023-03-14T08:26:52;6.10;51.76
66594;DHT22;53450;42.584;23.366;2023-03-14T08:29:18;6.10;51.58
66594;DHT22;53450;42.584;23.366;2023-03-14T08:31:44;6.05;50.87
66594;DHT22;53450;42.584;23.366;2023-03-14T08:34:09;6.10;51.72
66594;DHT22;53450;42.584;23.366;2023-03-14T08:36:35;6.91;50.62
66594;DHT22;53450;42.584;23.366;2023-03-14T08:39:01;7.00;48.40
66594;DHT22;53450;42.584;23.366;2023-03-14T08:41:26;6.81;49.64
66594;DHT22;53450;42.584;23.366;2023-03-14T08:43:52;6.66;49.87
66594;DHT22;53450;42.584;23.366;2023-03-14T08:46:18;6.66;49.62
66594;DHT22;53450;42.584;23.366;2023-03-14T08:48:43;6.65;50.25
66594;DHT22;53450;42.584;23.366;2023-03-14T08:51:11;6.79;48.32
66594;DHT22;53450;42.584;23.366;2023-03-14T08:53:38;6.81;47.95
66594;DHT22;53450;42.584;23.366;2023-03-14T08:56:04;6.84;47.92
66594;DHT22;53450;42.584;23.366;2023-03-14T08:58:32;6.69;46.52
66594;DHT22;53450;42.584;23.366;2023-03-14T09:00:57;6.86;47.49
66594;DHT22;53450;42.584;23.366;2023-03-14T09:03:24;6.93;48.98
66594;DHT22;53450;42.584;23.366;2023-03-14T09:05:50;7.03;47.68
66594;DHT22;53450;42.584;23.366;2023-03-14T09:08:16;7.04;48.32
66594;DHT22;53450;42.584;23.366;2023-03-14T09:10:42;7.05;48.21
66594;DHT22;53450;42.584;23.366;2023-03-14T09:13:07;7.21;47.70
66594;DHT22;53450;42.584;23.366;2023-03-14T09:15:33;7.34;48.09
66594;DHT22;53450;42.584;23.366;2023-03-14T09:17:59;7.51;47.34
66594;DHT22;53450;42.584;23.366;2023-03-14T09:20:25;7.58;47.52
66594;DHT22;53450;42.584;23.366;2023-03-14T09:22:50;7.72;46.40
66594;DHT22;53450;42.584;23.366;2023-03-14T09:25:16;7.78;46.80
66594;DHT22;53450;42.584;23.366;2023-03-14T09:27:42;7.79;47.63
66594;DHT22;53450;42.584;23.366;2023-03-14T09:30:08;7.89;48.06
66594;DHT22;53450;42.584;23.366;2023-03-14T09:32:34;7.89;46.83
66594;DHT22;53450;42.584;23.366;2023-03-14T09:34:59;7.94;46.56
66594;DHT22;53450;42.584;23.366;2023-03-14T09:37:25;8.06;47.54
66594;DHT22;53450;42.584;23.366;2023-03-14T09:39:50;8.20;48.19
66594;DHT22;53450;42.584;23.366;2023-03-14T09:42:18;8.37;47.14
66594;DHT22;53450;42.584;23.366;2023-03-14T09:44:59;8.47;47.77
66594;DHT22;53450;42.584;23.366;2023-03-14T09:47:29;8.67;47.51
66594;DHT22;53450;42.584;23.366;2023-03-14T09:49:55;8.67;46.31
66594;DHT22;53450;42.584;23.366;2023-03-14T09:52:25;8.72;45.75
66594;DHT22;53450;42.584;23.366;2023-03-14T09:55:20;8.92;44.87
66594;DHT22;53450;42.584;23.366;2023-03-14T09:57:45;9.05;46.40
66594;DHT22;53450;42.584;23.366;2023-03-14T10:00:19;9.22;45.39
66594;DHT22;53450;42.584;23.366;2023-03-14T10:03:00;9.33;44.67
66594;DHT22;53450;42.584;23.366;2023-03-14T10:05:32;9.27;44.19
66594;DHT22;53450;42.584;23.366;2023-03-14T10:07:58;9.27;44.90
66594;DHT22;53450;42.584;23.366;2023-03-14T10:10:25;9.31;44.87
66594;DHT22;53450;42.584;23.366;2023-03-14T10:15:47;9.65;43.43
66594;DHT22;53450;42.584;23.366;2023-03-14T10:18:14;9.73;43.48
66594;DHT22;53450;42.584;23.366;2023-03-14T10:20:48;9.73;43.37
66594;DHT22;53450;42.584;23.366;2023-03-14T10:25:43;9.85;42.35
66594;DHT22;53450;42.584;23.366;2023-03-14T10:28:29;9.95;43.30
66594;DHT22;53450;42.584;23.366;2023-03-14T14:32:40;12.76;32.94
66594;DHT22;53450;42.584;23.366;2023-03-14T14:35:06;12.79;32.57
66594;DHT22;53450;42.584;23.366;2023-03-14T14:37:34;12.53;33.09
66594;DHT22;53450;42.584;23.366;2023-03-14T14:40:08;12.66;33.07
66594;DHT22;53450;42.584;23.366;2023-03-14T14:42:39;12.66;32.76
66594;DHT22;53450;42.584;23.366;2023-03-14T14:45:09;12.46;33.52
66594;DHT22;53450;42.584;23.366;2023-03-14T14:47:36;12.51;34.19
66594;DHT22;53450;42.584;23.366;2023-03-14T14:50:48;12.49;32.96
66594;DHT22;53450;42.584;23.366;2023-03-14T14:53:43;12.30;33.47
66594;DHT22;53450;42.584;23.366;2023-03-14T14:56:36;12.20;33.21
66594;DHT22;53450;42.584;23.366;2023-03-14T14:59:28;12.21;35.22
66594;DHT22;53450;42.584;23.366;2023-03-14T15:01:59;12.16;33.67
66594;DHT22;53450;42.584;23.366;2023-03-14T15:04:30;12.20;33.21
66594;DHT22;53450;42.584;23.366;2023-03-14T15:07:24;11.98;33.35
66594;DHT22;53450;42.584;23.366;2023-03-14T15:10:17;11.93;33.11
66594;DHT22;53450;42.584;23.366;2023-03-14T15:13:10;11.84;32.82
66594;DHT22;53450;42.584;23.366;2023-03-14T15:15:43;11.69;33.68
66594;DHT22;53450;42.584;23.366;2023-03-14T15:18:18;11.82;33.63
66594;DHT22;53450;42.584;23.366;2023-03-14T15:20:45;11.66;34.02
66594;DHT22;53450;42.584;23.366;2023-03-14T15:23:13;11.47;33.86
66594;DHT22;53450;42.584;23.366;2023-03-14T15:25:39;11.43;33.42
66594;DHT22;53450;42.584;23.366;2023-03-14T15:28:15;11.47;33.74
66594;DHT22;53450;42.584;23.366;2023-03-14T15:30:50;11.52;33.86
66594;DHT22;53450;42.584;23.366;2023-03-14T15:33:17;11.72;34.33
66594;DHT22;53450;42.584;23.366;2023-03-14T15:35:45;11.63;34.07
66594;DHT22;53450;42.584;23.366;2023-03-14T15:38:13;11.51;35.25
66594;DHT22;53450;42.584;23.366;2023-03-14T15:40:44;11.62;34.90
66594;DHT22;53450;42.584;23.366;2023-03-14T15:43:09;11.46;35.72
66594;DHT22;53450;42.584;23.366;2023-03-14T15:45:35;11.29;35.84
66594;DHT22;53450;42.584;23.366;2023-03-14T15:48:01;11.11;36.35
66594;DHT22;53450;42.584;23.366;2023-03-14T15:50:27;10.91;37.70
66594;DHT22;53450;42.584;23.366;2023-03-14T15:52:53;10.80;38.49
66594;DHT22;53450;42.584;23.366;2023-03-14T15:55:19;10.70;39.28
66594;DHT22;53450;42.584;23.366;2023-03-14T15:57:45;10.87;40.25
66594;DHT22;53450;42.584;23.366;2023-03-14T16:00:16;10.85;40.10
66594;DHT22;53450;42.584;23.366;2023-03-14T16:02:48;10.80;39.13
66594;DHT22;53450;42.584;23.366;2023-03-14T16:05:17;10.74;38.19
66594;DHT22;53450;42.584;23.366;2023-03-14T16:07:47;10.64;37.35
66594;DHT22;53450;42.584;23.366;2023-03-14T16:10:15;10.49;37.37
66594;DHT22;53450;42.584;23.366;2023-03-14T16:12:41;10.35;37.45
66594;DHT22;53450;42.584;23.366;2023-03-14T16:15:09;10.25;37.57
66594;DHT22;53450;42.584;23.366;2023-03-14T16:17:35;10.09;37.42
66594;DHT22;53450;42.584;23.366;2023-03-14T16:20:03;10.01;37.33
66594;DHT22;53450;42.584;23.366;2023-03-14T16:22:29;10.02;39.82
66594;DHT22;53450;42.584;23.366;2023-03-14T16:25:04;9.84;37.82
66594;DHT22;53450;42.584;23.366;2023-03-14T16:27:36;9.64;38.39
66594;DHT22;53450;42.584;23.366;2023-03-14T16:30:03;9.55;38.12
66594;DHT22;53450;42.584;23.366;2023-03-14T16:32:30;9.55;38.33
66594;DHT22;53450;42.584;23.366;2023-03-14T16:34:56;9.67;38.17
66594;DHT22;53450;42.584;23.366;2023-03-14T16:37:26;9.52;37.88
66594;DHT22;53450;42.584;23.366;2023-03-14T16:39:52;9.50;38.25
66594;DHT22;53450;42.584;23.366;2023-03-14T16:42:22;9.41;37.89
66594;DHT22;53450;42.584;23.366;2023-03-14T16:44:49;9.22;37.43
66594;DHT22;53450;42.584;23.366;2023-03-14T16:47:15;9.13;38.18
66594;DHT22;53450;42.584;23.366;2023-03-14T16:49:41;9.23;38.83
66594;DHT22;53450;42.584;23.366;2023-03-14T16:52:08;9.19;39.12
66594;DHT22;53450;42.584;23.366;2023-03-14T16:54:34;8.95;38.36
66594;DHT22;53450;42.584;23.366;2023-03-14T16:57:01;8.76;38.71
66594;DHT22;53450;42.584;23.366;2023-03-14T16:59:28;8.85;39.84
66594;DHT22;53450;42.584;23.366;2023-03-14T17:01:55;8.89;39.50
66594;DHT22;53450;42.584;23.366;2023-03-14T17:04:22;8.64;38.43
66594;DHT22;53450;42.584;23.366;2023-03-14T17:06:49;8.67;38.89
66594;DHT22;53450;42.584;23.366;2023-03-14T17:09:16;8.55;39.79
66594;DHT22;53450;42.584;23.366;2023-03-14T17:11:42;8.40;40.89
66594;DHT22;53450;42.584;23.366;2023-03-14T17:14:10;8.34;40.38
66594;DHT22;53450;42.584;23.366;2023-03-14T17:16:35;8.42;42.39
66594;DHT22;53450;42.584;23.366;2023-03-14T17:19:01;8.48;42.85
66594;DHT22;53450;42.584;23.366;2023-03-14T17:21:27;8.24;41.38
66594;DHT22;53450;42.584;23.366;2023-03-14T17:23:53;8.04;41.46
66594;DHT22;53450;42.584;23.366;2023-03-14T17:26:19;7.90;41.74
66594;DHT22;53450;42.584;23.366;2023-03-14T17:28:45;7.83;41.23
66594;DHT22;53450;42.584;23.366;2023-03-14T17:31:18;7.82;40.97
66594;DHT22;53450;42.584;23.366;2023-03-14T17:34:09;7.80;41.14
66594;DHT22;53450;42.584;23.366;2023-03-14T17:36:36;7.73;40.82
66594;DHT22;53450;42.584;23.366;2023-03-14T17:39:02;7.73;39.45
66594;DHT22;53450;42.584;23.366;2023-03-14T17:41:28;7.70;39.59
66594;DHT22;53450;42.584;23.366;2023-03-14T17:43:53;7.69;39.98
66594;DHT22;53450;42.584;23.366;2023-03-14T17:46:19;7.59;38.52
66594;DHT22;53450;42.584;23.366;2023-03-14T17:49:09;7.61;37.94
66594;DHT22;53450;42.584;23.366;2023-03-14T17:52:00;7.47;39.02
66594;DHT22;53450;42.584;23.366;2023-03-14T17:54:26;7.32;39.22
66594;DHT22;53450;42.584;23.366;2023-03-14T17:56:52;7.27;39.25
66594;DHT22;53450;42.584;23.366;2023-03-14T17:59:17;7.21;38.99
66594;DHT22;53450;42.584;23.366;2023-03-14T18:01:44;7.21;39.08
66594;DHT22;53450;42.584;23.366;2023-03-14T18:04:09;7.20;38.97
66594;DHT22;53450;42.584;23.366;2023-03-14T18:06:35;7.15;38.74
66594;DHT22;53450;42.584;23.366;2023-03-14T18:09:01;7.17;37.74
66594;DHT22;53450;42.584;23.366;2023-03-14T18:11:29;7.12;38.15
66594;DHT22;53450;42.584;23.366;2023-03-14T18:13:54;7.08;38.25
66594;DHT22;53450;42.584;23.366;2023-03-14T18:16:20;7.01;39.59
66594;DHT22;53450;42.584;23.366;2023-03-14T18:18:47;6.83;41.19
66594;DHT22;53450;42.584;23.366;2023-03-14T18:21:17;6.81;40.85
66594;DHT22;53450;42.584;23.366;2023-03-14T18:23:43;6.89;38.39
66594;DHT22;53450;42.584;23.366;2023-03-14T18:26:09;6.99;37.47
66594;DHT22;53450;42.584;23.366;2023-03-14T18:28:35;6.91;37.96
66594;DHT22;53450;42.584;23.366;2023-03-14T18:31:02;6.93;37.17
66594;DHT22;53450;42.584;23.366;2023-03-14T18:33:28;6.87;36.59
66594;DHT22;53450;42.584;23.366;2023-03-14T18:35:54;6.89;36.76
66594;DHT22;53450;42.584;23.366;2023-03-14T18:38:22;6.83;36.97
66594;DHT22;53450;42.584;23.366;2023-03-14T18:40:48;6.93;35.54
66594;DHT22;53450;42.584;23.366;2023-03-14T18:43:14;6.91;35.47
66594;DHT22;53450;42.584;23.366;2023-03-14T18:45:40;6.99;34.91
66594;DHT22;53450;42.584;23.366;2023-03-14T18:48:05;6.94;34.72
66594;DHT22;53450;42.584;23.366;2023-03-14T18:50:34;6.83;35.41
66594;DHT22;53450;42.584;23.366;2023-03-14T18:53:00;6.83;34.77
66594;DHT22;53450;42.584;23.366;2023-03-14T18:55:26;6.81;35.16
66594;DHT22;53450;42.584;23.366;2023-03-14T18:57:51;6.84;34.91
66594;DHT22;53450;42.584;23.366;2023-03-14T19:00:18;6.77;35.60
66594;DHT22;53450;42.584;23.366;2023-03-14T19:03:09;6.72;35.98
66594;DHT22;53450;42.584;23.366;2023-03-14T19:05:35;6.79;35.61
66594;DHT22;53450;42.584;23.366;2023-03-14T19:08:03;6.79;36.12
66594;DHT22;53450;42.584;23.366;2023-03-14T19:10:28;6.72;36.25
66594;DHT22;53450;42.584;23.366;2023-03-14T19:12:56;6.73;36.34
66594;DHT22;53450;42.584;23.366;2023-03-14T19:15:22;6.68;36.64
66594;DHT22;53450;42.584;23.366;2023-03-14T19:17:48;6.62;37.02
66594;DHT22;53450;42.584;23.366;2023-03-14T19:20:13;6.60;36.99
66594;DHT22;53450;42.584;23.366;2023-03-14T19:22:41;6.60;37.24
66594;DHT22;53450;42.584;23.366;2023-03-14T19:25:08;6.53;37.39
66594;DHT22;53450;42.584;23.366;2023-03-14T19:27:35;6.50;37.58
66594;DHT22;53450;42.584;23.366;2023-03-14T19:30:05;6.39;38.51
66594;DHT22;53450;42.584;23.366;2023-03-14T19:32:31;6.26;39.11
66594;DHT22;53450;42.584;23.366;2023-03-14T19:34:59;6.08;40.00
66594;DHT22;53450;42.584;23.366;2023-03-14T19:37:25;6.04;40.13
66594;DHT22;53450;42.584;23.366;2023-03-14T19:39:50;5.97;40.18
66594;DHT22;53450;42.584;23.366;2023-03-14T19:42:16;5.87;41.24
66594;DHT22;53450;42.584;23.366;2023-03-14T19:44:42;5.83;41.40
66594;DHT22;53450;42.584;23.366;2023-03-14T19:47:07;5.73;41.70
66594;DHT22;53450;42.584;23.366;2023-03-14T19:49:36;5.64;42.23
66594;DHT22;53450;42.584;23.366;2023-03-14T19:52:02;5.52;42.49
66594;DHT22;53450;42.584;23.366;2023-03-14T19:54:27;5.57;43.15
66594;DHT22;53450;42.584;23.366;2023-03-14T19:56:53;5.46;44.03
66594;DHT22;53450;42.584;23.366;2023-03-14T19:59:19;5.42;44.39
66594;DHT22;53450;42.584;23.366;2023-03-14T20:01:44;5.31;45.33
66594;DHT22;53450;42.584;23.366;2023-03-14T20:04:14;5.32;45.79